createdAt,value
2022-08-26T00:01:54.309Z,21.20
2022-08-26T00:04:25.124Z,21.10
2022-08-26T00:06:52.923Z,21.10
2022-08-26T00:09:20.706Z,21.00
2022-08-26T00:11:47.758Z,20.90
2022-08-26T00:14:16.164Z,20.90
2022-08-26T00:16:48.253Z,20.90
2022-08-26T00:19:20.330Z,20.90
2022-08-26T00:21:49.709Z,20.90
2022-08-26T00:24:19.697Z,20.80
2022-08-26T00:26:47.364Z,20.80
2022-08-26T00:29:14.869Z,20.90
2022-08-26T00:31:42.990Z,21.00
2022-08-26T00:34:12.531Z,20.90
2022-08-26T00:36:40.898Z,20.90
2022-08-26T00:39:08.729Z,20.90
2022-08-26T00:41:38.334Z,20.90
2022-08-26T00:44:06.027Z,20.90
2022-08-26T00:46:38.936Z,20.90
2022-08-26T00:49:17.965Z,20.90
2022-08-26T00:51:50.745Z,20.90
2022-08-26T00:54:21.145Z,20.80
2022-08-26T00:56:57.767Z,20.80
2022-08-26T00:59:30.200Z,21.00
2022-08-26T01:02:02.856Z,21.10
2022-08-26T01:04:32.730Z,21.00
2022-08-26T01:07:00.611Z,20.80
2022-08-26T01:09:28.340Z,20.80
2022-08-26T01:11:59.039Z,20.70
2022-08-26T01:14:29.671Z,20.70
2022-08-26T01:16:56.569Z,20.70
2022-08-26T01:19:31.376Z,20.60
2022-08-26T01:22:08.402Z,20.60
2022-08-26T01:24:36.116Z,20.50
2022-08-26T01:27:07.809Z,20.50
2022-08-26T01:29:37.537Z,20.40
2022-08-26T01:32:06.435Z,20.50
2022-08-26T01:34:36.428Z,20.50
2022-08-26T01:37:07.399Z,20.40
2022-08-26T01:39:35.785Z,20.40
2022-08-26T01:42:04.189Z,20.40
2022-08-26T01:45:02.129Z,20.40
2022-08-26T01:47:31.838Z,20.40
2022-08-26T01:50:01.162Z,20.40
2022-08-26T01:52:33.005Z,20.20
2022-08-26T01:55:00.840Z,20.30
2022-08-26T01:57:28.991Z,20.60
2022-08-26T01:59:58.622Z,20.90
2022-08-26T02:02:26.497Z,21.00
2022-08-26T02:04:59.714Z,20.90
2022-08-26T02:07:27.944Z,20.80
2022-08-26T02:09:55.167Z,20.70
2022-08-26T02:12:22.336Z,20.70
2022-08-26T02:14:53.662Z,20.60
2022-08-26T02:17:26.021Z,20.50
2022-08-26T02:19:53.356Z,20.30
2022-08-26T02:22:24.692Z,20.20
2022-08-26T02:24:57.707Z,20.20
2022-08-26T02:27:32.474Z,20.20
2022-08-26T02:30:10.983Z,20.20
2022-08-26T02:32:40.120Z,20.30
2022-08-26T02:35:09.678Z,20.30
2022-08-26T02:37:37.374Z,20.20
2022-08-26T02:40:08.278Z,20.20
2022-08-26T02:42:35.197Z,20.20
2022-08-26T02:45:02.188Z,20.20
2022-08-26T02:47:29.575Z,20.20
2022-08-26T02:49:59.692Z,20.20
2022-08-26T02:52:27.134Z,20.10
2022-08-26T02:54:55.082Z,20.10
2022-08-26T02:57:22.106Z,20.10
2022-08-26T02:59:49.383Z,20.10
2022-08-26T03:02:17.282Z,20.10
2022-08-26T03:04:57.888Z,20.20
2022-08-26T03:07:30.121Z,20.10
2022-08-26T03:09:57.747Z,20.10
2022-08-26T03:12:25.593Z,20.10
2022-08-26T03:14:53.239Z,20.10
2022-08-26T03:17:21.135Z,20.10
2022-08-26T03:19:51.761Z,20.10
2022-08-26T03:22:21.272Z,20.10
2022-08-26T03:24:48.505Z,20.10
2022-08-26T03:27:15.841Z,20.10
2022-08-26T03:30:02.984Z,20.00
2022-08-26T03:32:29.756Z,19.90
2022-08-26T03:34:57.635Z,19.80
2022-08-26T03:37:25.103Z,19.80
2022-08-26T03:39:52.700Z,19.80
2022-08-26T03:42:21.438Z,19.80
2022-08-26T03:44:48.861Z,19.70
2022-08-26T03:47:16.116Z,19.70
2022-08-26T03:49:43.232Z,19.60
2022-08-26T03:52:10.518Z,19.60
2022-08-26T03:54:38.619Z,19.50
2022-08-26T03:57:05.437Z,19.50
2022-08-26T03:59:32.829Z,19.60
2022-08-26T04:02:00.376Z,19.60
2022-08-26T04:04:27.737Z,19.60
2022-08-26T04:06:59.484Z,19.60
2022-08-26T04:09:27.724Z,19.70
2022-08-26T04:11:55.228Z,19.70
2022-08-26T04:14:25.669Z,19.70
2022-08-26T04:16:54.003Z,19.70
2022-08-26T04:19:23.488Z,19.60
2022-08-26T04:21:53.237Z,19.60
2022-08-26T04:24:23.686Z,19.50
2022-08-26T04:26:50.569Z,19.50
2022-08-26T04:29:23.950Z,19.60
2022-08-26T04:31:55.373Z,19.60
2022-08-26T04:34:24.685Z,19.60
2022-08-26T04:36:56.020Z,19.60
2022-08-26T04:39:22.859Z,19.70
2022-08-26T04:41:50.778Z,19.80
2022-08-26T04:44:18.662Z,19.80
2022-08-26T04:46:46.047Z,19.90
2022-08-26T04:49:13.526Z,20.00
2022-08-26T04:51:40.781Z,20.00
2022-08-26T04:54:08.655Z,20.10
2022-08-26T04:56:45.335Z,20.10
2022-08-26T04:59:17.178Z,20.10
2022-08-26T05:01:47.932Z,20.20
2022-08-26T05:04:18.918Z,20.20
2022-08-26T05:06:48.174Z,20.30
2022-08-26T05:09:16.096Z,20.40
2022-08-26T05:11:43.044Z,20.40
2022-08-26T05:14:10.253Z,20.60
2022-08-26T05:16:37.747Z,20.60
2022-08-26T05:19:08.527Z,20.70
2022-08-26T05:21:35.766Z,20.90
2022-08-26T05:24:02.619Z,21.00
2022-08-26T05:26:32.267Z,21.00
2022-08-26T05:28:59.080Z,21.00
2022-08-26T05:31:31.412Z,21.10
2022-08-26T05:33:59.505Z,21.10
2022-08-26T05:36:33.988Z,21.10
2022-08-26T05:39:03.562Z,21.00
2022-08-26T05:41:38.605Z,21.10
2022-08-26T05:44:07.979Z,21.10
2022-08-26T05:46:36.945Z,21.20
2022-08-26T05:49:05.795Z,21.30
2022-08-26T05:51:35.029Z,21.30
2022-08-26T05:54:03.521Z,21.30
2022-08-26T05:56:30.509Z,21.20
2022-08-26T05:58:58.358Z,21.30
2022-08-26T06:01:27.725Z,21.40
2022-08-26T06:04:01.473Z,21.50
2022-08-26T06:06:31.587Z,21.50
2022-08-26T06:09:00.008Z,21.70
2022-08-26T06:11:30.535Z,21.90
2022-08-26T06:14:03.505Z,22.10
2022-08-26T06:16:34.664Z,22.20
2022-08-26T06:19:10.907Z,22.20
2022-08-26T06:21:42.508Z,22.20
2022-08-26T06:24:32.121Z,22.10
2022-08-26T06:27:04.799Z,22.30
2022-08-26T06:29:34.172Z,22.60
2022-08-26T06:32:02.632Z,22.70
2022-08-26T06:34:30.341Z,22.70
2022-08-26T06:36:59.925Z,22.60
2022-08-26T06:39:28.485Z,22.60
2022-08-26T06:41:58.935Z,22.60
2022-08-26T06:44:26.328Z,22.70
2022-08-26T06:46:53.541Z,22.80
2022-08-26T06:49:27.211Z,22.80
2022-08-26T06:51:58.421Z,23.00
2022-08-26T06:54:26.466Z,23.20
2022-08-26T06:56:55.873Z,23.20
2022-08-26T06:59:23.348Z,23.30
2022-08-26T07:01:50.628Z,23.30
2022-08-26T07:04:20.347Z,23.40
2022-08-26T07:06:52.485Z,23.50
2022-08-26T07:09:22.738Z,23.40
2022-08-26T07:11:51.226Z,23.70
2022-08-26T07:14:21.149Z,23.60
2022-08-26T07:16:50.586Z,23.70
2022-08-26T07:19:30.994Z,23.80
2022-08-26T07:22:04.184Z,23.80
2022-08-26T07:24:33.494Z,23.90
2022-08-26T07:27:05.401Z,24.10
2022-08-26T07:29:33.397Z,24.20
2022-08-26T07:32:00.538Z,24.20
2022-08-26T07:34:28.139Z,24.30
2022-08-26T07:36:55.487Z,24.30
2022-08-26T07:39:22.683Z,24.30
2022-08-26T07:41:50.010Z,24.30
2022-08-26T07:44:17.034Z,24.30
2022-08-26T07:46:44.386Z,24.40
2022-08-26T07:49:19.659Z,24.60
2022-08-26T07:51:46.603Z,24.80
2022-08-26T07:54:13.441Z,24.80
2022-08-26T07:56:40.308Z,24.90
2022-08-26T07:59:13.850Z,25.00
2022-08-26T08:01:44.967Z,25.10
2022-08-26T08:04:14.613Z,25.00
2022-08-26T08:06:43.877Z,25.10
2022-08-26T08:09:12.362Z,25.20
2022-08-26T08:11:39.539Z,25.40
2022-08-26T08:14:08.421Z,25.60
2022-08-26T08:16:37.287Z,25.70
2022-08-26T08:19:06.045Z,25.80
2022-08-26T08:21:32.979Z,25.80
2022-08-26T08:24:00.621Z,25.90
2022-08-26T08:26:28.177Z,26.00
2022-08-26T08:28:56.915Z,26.10
2022-08-26T08:31:55.971Z,26.20
2022-08-26T08:34:18.114Z,26.30
2022-08-26T08:36:48.734Z,26.40
2022-08-26T08:39:16.767Z,26.40
2022-08-26T08:41:44.949Z,26.40
2022-08-26T08:44:31.485Z,26.50
2022-08-26T08:47:06.138Z,26.60
2022-08-26T08:49:34.542Z,26.60
2022-08-26T08:52:32.294Z,26.60
2022-08-26T08:54:59.190Z,26.70
2022-08-26T08:58:02.871Z,26.70
2022-08-26T09:00:39.809Z,26.80
2022-08-26T09:03:32.278Z,27.00
2022-08-26T09:06:01.943Z,27.30
2022-08-26T09:08:32.645Z,27.30
2022-08-26T09:11:01.952Z,27.40
2022-08-26T09:13:29.305Z,27.70
2022-08-26T09:16:09.910Z,27.70
2022-08-26T09:18:37.310Z,27.80
2022-08-26T09:21:11.938Z,28.00
2022-08-26T09:23:42.876Z,28.10
2022-08-26T09:26:38.772Z,28.30
2022-08-26T09:29:25.807Z,28.60
2022-08-26T09:32:13.701Z,28.60
2022-08-26T09:35:01.054Z,28.70
2022-08-26T09:37:38.119Z,28.80
2022-08-26T09:40:16.450Z,28.90
2022-08-26T09:42:44.849Z,29.00
2022-08-26T09:45:13.461Z,29.10
2022-08-26T09:47:46.784Z,29.20
2022-08-26T09:50:28.961Z,29.30
2022-08-26T09:53:28.583Z,29.50
2022-08-26T09:56:18.347Z,29.50
2022-08-26T09:58:47.923Z,29.50
2022-08-26T10:01:38.371Z,29.80
2022-08-26T10:04:07.772Z,30.10
2022-08-26T10:06:40.683Z,30.20
2022-08-26T10:09:12.301Z,30.30
2022-08-26T10:11:48.880Z,30.30
2022-08-26T10:14:22.354Z,30.30
2022-08-26T10:17:02.257Z,30.40
2022-08-26T10:19:41.670Z,30.60
2022-08-26T10:22:40.462Z,30.90
2022-08-26T10:25:13.174Z,31.10
2022-08-26T10:27:53.417Z,31.40
2022-08-26T10:30:24.015Z,31.60
2022-08-26T10:33:05.439Z,31.80
2022-08-26T10:35:35.695Z,31.90
2022-08-26T10:38:11.454Z,31.80
2022-08-26T10:40:46.187Z,31.80
2022-08-26T10:43:28.453Z,32.00
2022-08-26T10:46:05.327Z,32.20
2022-08-26T10:48:35.380Z,32.30
2022-08-26T10:51:04.426Z,32.30
2022-08-26T10:53:53.237Z,32.70
2022-08-26T10:56:46.084Z,32.80
2022-08-26T10:59:30.410Z,33.00
2022-08-26T11:02:28.206Z,33.10
2022-08-26T11:05:03.071Z,33.10
2022-08-26T11:07:42.142Z,33.30
2022-08-26T11:10:20.891Z,33.30
2022-08-26T11:12:53.614Z,33.20
2022-08-26T11:15:24.551Z,33.40
2022-08-26T11:17:52.442Z,33.80
2022-08-26T11:20:22.715Z,34.30
2022-08-26T11:22:53.017Z,34.80
2022-08-26T11:25:26.452Z,35.30
2022-08-26T11:28:00.653Z,35.80
2022-08-26T11:30:42.811Z,36.60
2022-08-26T11:33:31.599Z,36.90
2022-08-26T11:36:01.132Z,37.10
2022-08-26T11:38:43.458Z,37.90
2022-08-26T11:41:21.083Z,38.50
2022-08-26T11:43:52.067Z,39.60
2022-08-26T11:46:28.363Z,39.70
2022-08-26T11:49:05.413Z,40.70
2022-08-26T11:51:38.233Z,41.70
2022-08-26T11:54:10.729Z,42.20
2022-08-26T11:56:39.448Z,42.80
2022-08-26T11:59:10.680Z,43.90
2022-08-26T12:01:42.915Z,44.80
2022-08-26T12:04:29.012Z,45.30
2022-08-26T12:06:57.259Z,46.10
2022-08-26T12:09:30.844Z,46.70
2022-08-26T12:12:12.133Z,47.40
2022-08-26T12:14:39.699Z,47.80
2022-08-26T12:17:12.595Z,48.20
2022-08-26T12:19:39.917Z,49.30
2022-08-26T12:22:26.546Z,49.50
2022-08-26T12:25:06.829Z,49.20
2022-08-26T12:27:45.362Z,49.60
2022-08-26T12:30:22.700Z,49.50
2022-08-26T12:33:22.408Z,49.30
2022-08-26T12:35:54.744Z,48.70
2022-08-26T12:38:25.582Z,49.00
2022-08-26T12:40:53.202Z,49.20
2022-08-26T12:43:40.628Z,49.30
2022-08-26T12:46:13.722Z,49.40
2022-08-26T12:48:44.164Z,49.80
2022-08-26T12:51:25.455Z,50.00
2022-08-26T12:53:53.715Z,48.30
2022-08-26T12:56:40.956Z,46.90
2022-08-26T12:59:24.331Z,45.40
2022-08-26T13:01:52.664Z,44.40
2022-08-26T13:04:46.201Z,44.10
2022-08-26T13:07:25.301Z,43.20
2022-08-26T13:09:54.952Z,43.00
2022-08-26T13:12:34.054Z,43.70
2022-08-26T13:15:02.647Z,45.00
2022-08-26T13:17:31.083Z,46.40
2022-08-26T13:20:03.276Z,47.30
2022-08-26T13:22:31.246Z,48.20
2022-08-26T13:24:58.105Z,49.10
2022-08-26T13:27:26.321Z,49.70
2022-08-26T13:29:54.099Z,50.30
2022-08-26T13:32:25.172Z,50.80
2022-08-26T13:34:56.234Z,50.90
2022-08-26T13:37:31.489Z,50.40
2022-08-26T13:40:01.887Z,48.60
2022-08-26T13:42:29.856Z,47.50
2022-08-26T13:44:58.157Z,45.10
2022-08-26T13:47:26.061Z,44.40
2022-08-26T13:49:56.261Z,45.00
2022-08-26T13:52:25.508Z,46.10
2022-08-26T13:54:58.222Z,47.10
2022-08-26T13:57:27.861Z,47.90
2022-08-26T13:59:57.047Z,48.20
2022-08-26T14:02:24.088Z,48.70
2022-08-26T14:04:51.726Z,49.70
2022-08-26T14:07:18.664Z,49.90
2022-08-26T14:09:45.571Z,50.20
2022-08-26T14:12:12.388Z,49.40
2022-08-26T14:14:39.200Z,49.40
2022-08-26T14:17:07.040Z,50.10
2022-08-26T14:19:33.909Z,50.20
2022-08-26T14:22:01.716Z,50.70
2022-08-26T14:24:29.149Z,51.10
2022-08-26T14:26:56.023Z,51.70
2022-08-26T14:29:23.227Z,51.30
2022-08-26T14:31:50.046Z,51.00
2022-08-26T14:34:16.963Z,51.20
2022-08-26T14:36:43.850Z,51.00
2022-08-26T14:39:12.655Z,50.80
2022-08-26T14:41:45.409Z,51.30
2022-08-26T14:44:22.236Z,51.10
2022-08-26T14:46:51.071Z,51.20
2022-08-26T14:49:20.325Z,50.80
2022-08-26T14:51:47.474Z,50.70
2022-08-26T14:54:16.150Z,50.10
2022-08-26T14:56:47.577Z,50.00
2022-08-26T14:59:17.646Z,50.10
2022-08-26T15:01:46.655Z,50.80
2022-08-26T15:04:14.159Z,50.80
2022-08-26T15:06:41.782Z,50.30
2022-08-26T15:09:09.116Z,50.00
2022-08-26T15:11:36.761Z,50.20
2022-08-26T15:14:04.526Z,50.50
2022-08-26T15:16:31.578Z,50.40
2022-08-26T15:19:00.988Z,50.30
2022-08-26T15:21:28.552Z,49.90
2022-08-26T15:23:55.590Z,49.80
2022-08-26T15:26:23.953Z,49.60
2022-08-26T15:28:52.127Z,49.10
2022-08-26T15:31:19.370Z,48.90
2022-08-26T15:33:46.225Z,48.90
2022-08-26T15:36:13.405Z,48.50
2022-08-26T15:38:42.529Z,48.30
2022-08-26T15:41:10.305Z,47.90
2022-08-26T15:43:38.080Z,47.60
2022-08-26T15:46:05.170Z,47.80
2022-08-26T15:48:32.430Z,47.50
2022-08-26T15:51:01.583Z,47.30
2022-08-26T15:53:31.287Z,47.40
2022-08-26T15:55:59.758Z,47.60
2022-08-26T15:58:28.188Z,47.80
2022-08-26T16:00:56.017Z,47.90
2022-08-26T16:03:23.055Z,47.80
2022-08-26T16:05:50.589Z,47.40
2022-08-26T16:08:17.643Z,47.00
2022-08-26T16:10:50.396Z,46.50
2022-08-26T16:13:20.146Z,46.20
2022-08-26T16:15:48.581Z,45.70
2022-08-26T16:18:16.623Z,45.70
2022-08-26T16:21:12.807Z,45.40
2022-08-26T16:23:38.443Z,45.40
2022-08-26T16:26:14.318Z,44.90
2022-08-26T16:28:41.222Z,44.70
2022-08-26T16:31:11.718Z,43.90
2022-08-26T16:33:38.962Z,43.50
2022-08-26T16:36:06.716Z,43.10
2022-08-26T16:38:34.262Z,42.50
2022-08-26T16:41:01.886Z,42.00
2022-08-26T16:43:28.747Z,41.50
2022-08-26T16:45:56.555Z,41.00
2022-08-26T16:48:24.097Z,40.80
2022-08-26T16:50:51.735Z,40.40
2022-08-26T16:53:19.073Z,40.30
2022-08-26T16:55:47.564Z,39.90
2022-08-26T16:58:14.680Z,39.40
2022-08-26T17:00:41.849Z,38.80
2022-08-26T17:03:10.128Z,38.30
2022-08-26T17:05:37.203Z,37.60
2022-08-26T17:08:05.529Z,37.10
2022-08-26T17:10:32.907Z,36.60
2022-08-26T17:13:00.067Z,35.80
2022-08-26T17:15:27.791Z,35.20
2022-08-26T17:17:56.142Z,34.70
2022-08-26T17:20:24.532Z,34.10
2022-08-26T17:22:53.993Z,33.80
2022-08-26T17:25:28.425Z,33.30
2022-08-26T17:30:25.898Z,32.70
2022-08-26T17:32:53.805Z,32.20
2022-08-26T17:35:21.201Z,31.80
2022-08-26T17:37:48.789Z,31.40
2022-08-26T17:40:20.458Z,31.20
2022-08-26T17:42:48.174Z,31.00
2022-08-26T17:45:15.578Z,30.70
2022-08-26T17:47:42.385Z,30.50
2022-08-26T17:50:13.047Z,30.30
2022-08-26T17:52:40.948Z,30.10
2022-08-26T17:55:09.249Z,29.90
2022-08-26T17:57:40.593Z,29.70
2022-08-26T18:00:12.537Z,29.40
2022-08-26T18:02:40.081Z,29.30
2022-08-26T18:05:08.508Z,29.00
2022-08-26T18:07:43.666Z,28.80
2022-08-26T18:10:14.630Z,28.70
2022-08-26T18:12:41.779Z,28.50
2022-08-26T18:15:10.743Z,28.30
2022-08-26T18:17:41.912Z,28.30
2022-08-26T18:20:11.558Z,28.20
2022-08-26T18:22:38.860Z,28.10
2022-08-26T18:25:07.234Z,28.00
2022-08-26T18:27:36.111Z,28.00
2022-08-26T18:30:13.417Z,27.90
2022-08-26T18:32:42.842Z,27.80
2022-08-26T18:35:10.656Z,27.70
2022-08-26T18:37:37.805Z,27.70
2022-08-26T18:40:11.575Z,27.60
2022-08-26T18:42:39.439Z,27.50
2022-08-26T18:45:07.629Z,27.40
2022-08-26T18:47:35.398Z,27.30
2022-08-26T18:50:03.303Z,27.20
2022-08-26T18:52:31.473Z,27.00
2022-08-26T18:54:59.378Z,26.90
2022-08-26T18:57:26.551Z,26.90
2022-08-26T18:59:53.292Z,26.80
2022-08-26T19:02:20.579Z,26.70
2022-08-26T19:04:48.052Z,26.60
2022-08-26T19:07:15.129Z,26.50
2022-08-26T19:09:41.918Z,26.40
2022-08-26T19:12:08.816Z,26.40
2022-08-26T19:14:36.660Z,26.30
2022-08-26T19:17:04.164Z,26.20
2022-08-26T19:19:31.782Z,26.20
2022-08-26T19:21:59.048Z,26.20
2022-08-26T19:24:28.177Z,26.20
2022-08-26T19:26:58.436Z,25.40
2022-08-26T19:29:28.370Z,24.40
2022-08-26T19:31:56.556Z,25.90
2022-08-26T19:34:24.145Z,25.80
2022-08-26T19:36:53.386Z,24.30
2022-08-26T19:39:21.220Z,25.30
2022-08-26T19:41:48.157Z,25.70
2022-08-26T19:44:37.735Z,25.70
2022-08-26T19:47:06.375Z,25.70
2022-08-26T19:49:33.721Z,25.70
2022-08-26T19:52:03.079Z,25.60
2022-08-26T19:54:30.458Z,25.60
2022-08-26T19:56:57.476Z,25.60
2022-08-26T20:02:02.220Z,25.40
2022-08-26T20:07:29.663Z,23.80
2022-08-26T20:09:56.455Z,25.40
2022-08-26T20:12:23.893Z,25.30
2022-08-26T20:14:50.712Z,25.30
2022-08-26T20:17:17.463Z,25.40
2022-08-26T20:20:02.782Z,25.40
2022-08-26T20:22:30.360Z,25.30
2022-08-26T20:24:58.121Z,25.20
2022-08-26T20:27:37.836Z,25.20
2022-08-26T20:30:07.595Z,25.10
2022-08-26T20:32:35.669Z,25.20
2022-08-26T20:35:07.167Z,25.30
2022-08-26T20:37:34.832Z,25.40
2022-08-26T20:40:02.090Z,25.40
2022-08-26T20:42:28.993Z,25.20
2022-08-26T20:44:55.809Z,25.00
2022-08-26T20:47:23.240Z,25.00
2022-08-26T20:49:52.396Z,25.00
2022-08-26T20:52:20.538Z,25.10
2022-08-26T20:54:47.725Z,25.00
2022-08-26T20:57:14.859Z,24.90
2022-08-26T20:59:42.960Z,24.90
2022-08-26T21:02:10.052Z,24.70
2022-08-26T21:07:12.178Z,24.40
2022-08-26T21:09:39.085Z,24.30
2022-08-26T21:12:05.952Z,24.40
2022-08-26T21:14:33.090Z,24.50
2022-08-26T21:17:00.414Z,24.40
2022-08-26T21:19:27.586Z,24.40
2022-08-26T21:21:54.842Z,24.40
2022-08-26T21:24:22.027Z,24.50
2022-08-26T21:26:48.835Z,24.40
2022-08-26T21:29:15.878Z,24.40
2022-08-26T21:31:46.489Z,24.30
2022-08-26T21:34:16.535Z,24.30
2022-08-26T21:36:43.794Z,24.20
2022-08-26T21:39:12.077Z,24.20
2022-08-26T21:41:41.129Z,24.20
2022-08-26T21:44:08.895Z,24.20
2022-08-26T21:46:37.292Z,24.20
2022-08-26T21:49:07.420Z,24.20
2022-08-26T21:51:37.344Z,24.20
2022-08-26T21:54:10.721Z,24.20
2022-08-26T21:56:40.693Z,24.10
2022-08-26T21:59:08.805Z,24.10
2022-08-26T22:01:37.693Z,24.00
2022-08-26T22:04:06.724Z,24.00
2022-08-26T22:06:39.386Z,24.00
2022-08-26T22:09:06.168Z,24.00
2022-08-26T22:11:33.137Z,23.90
2022-08-26T22:14:00.389Z,23.00
2022-08-26T22:16:28.550Z,23.90
2022-08-26T22:18:55.641Z,23.80
2022-08-26T22:21:24.966Z,23.80
2022-08-26T22:23:57.968Z,23.70
2022-08-26T22:26:29.020Z,23.70
2022-08-26T22:28:58.519Z,23.60
2022-08-26T22:31:28.093Z,23.60
2022-08-26T22:34:10.040Z,23.50
2022-08-26T22:36:43.637Z,23.50
2022-08-26T22:39:12.962Z,23.40
2022-08-26T22:41:40.434Z,23.40
2022-08-26T22:44:07.543Z,23.40
2022-08-26T22:46:36.685Z,23.40
2022-08-26T22:49:04.944Z,23.40
2022-08-26T22:51:32.156Z,23.40
2022-08-26T22:53:59.333Z,23.30
2022-08-26T22:56:26.536Z,23.30
2022-08-26T22:58:53.420Z,23.30
2022-08-26T23:01:20.295Z,23.20
2022-08-26T23:03:47.746Z,23.20
2022-08-26T23:06:15.228Z,23.20
2022-08-26T23:08:45.203Z,23.20
2022-08-26T23:11:13.572Z,23.10
2022-08-26T23:13:40.543Z,23.10
2022-08-26T23:16:10.518Z,23.10
2022-08-26T23:18:38.362Z,23.10
2022-08-26T23:21:06.009Z,23.10
2022-08-26T23:23:32.914Z,23.10
2022-08-26T23:26:03.233Z,23.00
2022-08-26T23:28:32.517Z,23.00
2022-08-26T23:31:00.174Z,23.00
2022-08-26T23:33:47.090Z,22.90
2022-08-26T23:36:17.822Z,22.80
2022-08-26T23:38:45.414Z,22.80
2022-08-26T23:41:23.388Z,22.80
2022-08-26T23:43:51.521Z,22.80
2022-08-26T23:46:19.184Z,22.80
2022-08-26T23:48:46.608Z,22.70
2022-08-26T23:51:32.607Z,22.60
2022-08-26T23:53:59.466Z,22.70
2022-08-26T23:56:27.181Z,22.70
2022-08-26T23:58:54.799Z,22.70
